1898 NOT_NAMED (1898052S07056)


IBTrACS version v04r00. Visit IBTrACS website for data access.
Please direct all questions to the IBTrACS Q and A forum

Storm track - Intensity - Wind Radii - Intensity Data - Source Data - All data

Summary Information

Storm ID 1898052S07056
Start Feb 21 06Z
Landfall Mar 2 00Z
End Mar 4 06Z
ATCF IDs
Track status Best track data.

Storm track plot

Map of storm track

Intensity plots

No Intensity information for this storm


Radial wind information

No radial wind information for this storm


Position and Intensity Table

BASIN ISO_TIME_________ NATURE LAT LON
degrees north degrees east
SI 1898-02-21 06:00:00 NR -7.10 55.60
SI 09:00:00 NR -7.21 55.48
SI 12:00:00 NR -7.33 55.36
SI 15:00:00 NR -7.46 55.23
SI 18:00:00 NR -7.55 55.08
SI 21:00:00 NR -7.67 54.95
SI 1898-02-22 00:00:00 NR -7.82 54.82
SI 03:00:00 NR -7.99 54.70
SI 06:00:00 NR -8.20 54.55
SI 09:00:00 NR -8.45 54.38
SI 12:00:00 NR -8.73 54.19
SI 15:00:00 NR -9.02 53.98
SI 18:00:00 NR -9.32 53.74
SI 21:00:00 NR -9.60 53.49
SI 1898-02-23 00:00:00 NR -9.88 53.21
SI 03:00:00 NR -10.15 52.90
SI 06:00:00 NR -10.40 52.55
SI 09:00:00 NR -10.62 52.17
SI 12:00:00 NR -10.81 51.76
SI 15:00:00 NR -10.99 51.31
SI 18:00:00 NR -11.17 50.84
SI 21:00:00 NR -11.31 50.33
SI 1898-02-24 00:00:00 NR -11.46 49.80
SI 03:00:00 NR -11.61 49.26
SI 06:00:00 NR -11.80 48.75
SI 09:00:00 NR -12.05 48.26
SI 12:00:00 NR -12.34 47.79
SI 15:00:00 NR -12.64 47.34
SI 18:00:00 NR -12.93 46.90
SI 21:00:00 NR -13.21 46.46
SI 1898-02-25 00:00:00 NR -13.48 46.05
SI 03:00:00 NR -13.73 45.68
SI 06:00:00 NR -13.95 45.35
SI 09:00:00 NR -14.12 45.09
SI 12:00:00 NR -14.27 44.87
SI 15:00:00 NR -14.41 44.67
SI 18:00:00 NR -14.56 44.49
SI 21:00:00 NR -14.72 44.31
SI 1898-02-26 00:00:00 NR -14.89 44.13
SI 03:00:00 NR -15.09 43.94
SI 06:00:00 NR -15.30 43.75
SI 09:00:00 NR -15.54 43.51
SI 12:00:00 NR -15.81 43.27
SI 15:00:00 NR -16.10 43.03
SI 18:00:00 NR -16.41 42.81
SI 21:00:00 NR -16.72 42.60
SI 1898-02-27 00:00:00 NR -17.06 42.42
SI 03:00:00 NR -17.40 42.27
SI 06:00:00 NR -17.75 42.15
SI 09:00:00 NR -18.09 42.07
SI 12:00:00 NR -18.43 42.01
SI 15:00:00 NR -18.78 41.99
SI 18:00:00 NR -19.12 41.99
SI 21:00:00 NR -19.24 41.97
SI 1898-02-28 00:00:00 NR -19.25 41.94
SI 03:00:00 NR -19.11 41.90
SI 06:00:00 NR -18.70 41.80
SI 09:00:00 NR -19.00 41.73
SI 12:00:00 NR -19.31 41.66
SI 15:00:00 NR -19.65 41.60
SI 18:00:00 NR -20.01 41.57
SI 21:00:00 NR -20.38 41.56
SI 1898-03-01 00:00:00 NR -20.77 41.59
SI 03:00:00 NR -21.18 41.67
SI 06:00:00 NR -21.60 41.80
SI 09:00:00 NR -22.07 42.02
SI 12:00:00 NR -22.56 42.30
SI 15:00:00 NR -23.06 42.63
SI 18:00:00 NR -23.56 43.00
SI 21:00:00 NR -24.04 43.39
SI 1898-03-02 00:00:00 NR -24.97 44.29
SI 03:00:00 NR -25.63 45.00
SI 06:00:00 NR -25.68 45.06
SI 09:00:00 NR -25.61 44.96
SI 12:00:00 NR -25.88 45.31
SI 15:00:00 NR -26.11 45.66
SI 18:00:00 NR -26.30 45.99
SI 21:00:00 NR -26.46 46.30
SI 1898-03-03 00:00:00 NR -26.59 46.60
SI 03:00:00 NR -26.71 46.86
SI 06:00:00 NR -26.80 47.10
SI 09:00:00 NR -26.88 47.30
SI 12:00:00 NR -26.95 47.47
SI 15:00:00 NR -27.01 47.62
SI 18:00:00 NR -27.05 47.74
SI 21:00:00 NR -27.10 47.85
SI 1898-03-04 00:00:00 NR -27.13 47.94
SI 03:00:00 NR -27.17 48.02
SI 06:00:00 NR -27.20 48.10

Source Information

Agency Information
USA
TOKYO
CMA
HKO
NEWDELHI
REUNION WMO-Best-Tracks.txt:Line=1825:xxxx898267
BOM
NADI
WELLINGTON
DS824
TD9636 cons_worldwide_trop_cyclone_18710101-19891231-005:Line=2443
TD9635
NEUMANN
MLC

All available IBTrACS Data

SEASON BASIN SUBBASIN ISO_TIME_________ NATURE LAT LON WMO AGENCY DIST2LAND LANDFALL IFLAG USA SSHS REUNION LAT REUNION LON REUNION TYPE REUNION TNUM TD9636 LAT TD9636 LON TD9636 STAGE STORM SPEED STORM DIR
Year degrees north degrees east km km 1 degrees north degrees east 1 degrees north degrees east kts degrees
1898 SI MM 1898-02-21 06:00:00 NR -7.10 55.60 reunion 888 872 _____O________ -1 -7.10 55.60 99 9.90 3 225
1898 SI MM 09:00:00 NR -7.21 55.48 872 856 _____P________ -1 -7.21 55.48 99 3 226
1898 SI MM 12:00:00 NR -7.33 55.36 856 825 _____P________ -1 -7.33 55.36 99 3 225
1898 SI MM 15:00:00 NR -7.46 55.23 825 817 _____P________ -1 -7.46 55.23 99 4 231
1898 SI MM 18:00:00 NR -7.55 55.08 809 794 _____P____O___ -1 -7.59 55.10 99 -7.40 55.00 7 4 232
1898 SI MM 21:00:00 NR -7.67 54.95 794 770 _____P____P___ -1 -7.74 54.97 99 -7.54 54.92 7 4 224
1898 SI MM 1898-02-22 00:00:00 NR -7.82 54.82 770 747 _____P____P___ -1 -7.91 54.82 99 -7.70 54.83 7 4 219
1898 SI MM 03:00:00 NR -7.99 54.70 747 724 _____P____P___ -1 -8.09 54.67 99 -7.88 54.73 7 5 215
1898 SI MM 06:00:00 NR -8.20 54.55 reunion 724 693 _____O____O___ -1 -8.30 54.50 99 9.90 -8.10 54.60 7 6 214
1898 SI MM 09:00:00 NR -8.45 54.38 686 655 _____P____P___ -1 -8.53 54.32 99 -8.37 54.44 7 6 214
1898 SI MM 12:00:00 NR -8.73 54.19 655 617 _____P____P___ -1 -8.79 54.13 99 -8.67 54.26 7 7 215
1898 SI MM 15:00:00 NR -9.02 53.98 617 580 _____P____P___ -1 -9.06 53.91 99 -8.99 54.04 7 7 217
1898 SI MM 18:00:00 NR -9.32 53.74 571 534 _____P____O___ -1 -9.33 53.68 99 -9.30 53.80 7 8 220
1898 SI MM 21:00:00 NR -9.60 53.49 534 488 _____P____P___ -1 -9.61 53.42 99 -9.59 53.55 7 8 223
1898 SI MM 1898-02-23 00:00:00 NR -9.88 53.21 488 448 _____P____P___ -1 -9.89 53.14 99 -9.88 53.27 7 8 227
1898 SI MM 03:00:00 NR -10.15 52.90 442 403 _____P____P___ -1 -10.15 52.84 99 -10.15 52.96 7 8 231
1898 SI MM 06:00:00 NR -10.40 52.55 reunion 403 354 _____O____O___ -1 -10.40 52.50 99 9.90 -10.40 52.60 7 9 237
1898 SI MM 09:00:00 NR -10.62 52.17 354 305 _____P____P___ -1 -10.60 52.14 99 -10.63 52.21 7 9 242
1898 SI MM 12:00:00 NR -10.81 51.76 305 246 _____P____P___ -1 -10.79 51.74 99 -10.84 51.78 7 9 246
1898 SI MM 15:00:00 NR -10.99 51.31 246 198 _____P____P___ -1 -10.96 51.32 99 -11.03 51.31 7 10 249
1898 SI MM 18:00:00 NR -11.17 50.84 189 148 _____P____O___ -1 -11.13 50.88 99 -11.20 50.80 7 10 252
1898 SI MM 21:00:00 NR -11.31 50.33 140 95 _____P____P___ -1 -11.29 50.42 99 -11.33 50.24 7 11 254
1898 SI MM 1898-02-24 00:00:00 NR -11.46 49.80 86 55 _____P____P___ -1 -11.46 49.95 99 -11.46 49.64 7 11 254
1898 SI MM 03:00:00 NR -11.61 49.26 55 46 _____P____P___ -1 -11.62 49.47 99 -11.60 49.05 7 11 251
1898 SI MM 06:00:00 NR -11.80 48.75 reunion 54 54 _____O____O___ -1 -11.80 49.00 99 9.90 -11.80 48.50 7 11 246
1898 SI MM 09:00:00 NR -12.05 48.26 70 70 _____P____P___ -1 -12.01 48.51 99 -12.10 48.02 7 11 240
1898 SI MM 12:00:00 NR -12.34 47.79 110 109 _____P____P___ -1 -12.22 48.00 99 -12.45 47.58 7 11 237
1898 SI MM 15:00:00 NR -12.64 47.34 135 124 _____P____P___ -1 -12.44 47.50 99 -12.83 47.18 7 11 236
1898 SI MM 18:00:00 NR -12.93 46.90 140 133 _____P____O___ -1 -12.66 47.00 99 -13.20 46.80 7 10 236
1898 SI MM 21:00:00 NR -13.21 46.46 161 161 _____P____P___ -1 -12.88 46.53 99 -13.54 46.40 7 10 236
1898 SI MM 1898-02-25 00:00:00 NR -13.48 46.05 195 195 _____P____P___ -1 -13.09 46.08 99 -13.86 46.03 7 9 236
1898 SI MM 03:00:00 NR -13.73 45.68 213 205 _____P____P___ -1 -13.30 45.66 99 -14.15 45.69 7 8 235
1898 SI MM 06:00:00 NR -13.95 45.35 reunion 211 206 _____O____O___ -1 -13.50 45.30 99 9.90 -14.40 45.40 7 7 235
1898 SI MM 09:00:00 NR -14.12 45.09 208 191 _____P____P___ -1 -13.66 45.01 99 -14.58 45.16 7 6 235
1898 SI MM 12:00:00 NR -14.27 44.87 191 181 _____P____P___ -1 -13.82 44.77 99 -14.73 44.96 7 5 234
1898 SI MM 15:00:00 NR -14.41 44.67 184 169 _____P____P___ -1 -13.97 44.56 99 -14.86 44.78 7 5 232
1898 SI MM 18:00:00 NR -14.56 44.49 169 163 _____P____O___ -1 -14.12 44.39 99 -15.00 44.60 7 5 229
1898 SI MM 21:00:00 NR -14.72 44.31 168 156 _____P____P___ -1 -14.27 44.23 99 -15.17 44.39 7 5 227
1898 SI MM 1898-02-26 00:00:00 NR -14.89 44.13 159 140 _____P____P___ -1 -14.43 44.09 99 -15.35 44.16 7 5 224
1898 SI MM 03:00:00 NR -15.09 43.94 144 129 _____P____P___ -1 -14.61 43.95 99 -15.56 43.94 7 5 222
1898 SI MM 06:00:00 NR -15.30 43.75 reunion 129 123 _____O____O___ -1 -14.80 43.80 99 9.90 -15.80 43.70 7 6 222
1898 SI MM 09:00:00 NR -15.54 43.51 131 124 _____P____P___ -1 -15.03 43.58 99 -16.06 43.44 7 7 222
1898 SI MM 12:00:00 NR -15.81 43.27 130 130 _____P____P___ -1 -15.28 43.36 99 -16.34 43.18 7 7 220
1898 SI MM 15:00:00 NR -16.10 43.03 151 149 _____P____P___ -1 -15.54 43.14 99 -16.66 42.93 7 7 216
1898 SI MM 18:00:00 NR -16.41 42.81 164 159 _____P____O___ -1 -15.81 42.92 99 -17.00 42.70 7 8 213
1898 SI MM 21:00:00 NR -16.72 42.60 164 158 _____P____P___ -1 -16.09 42.71 99 -17.36 42.50 7 8 210
1898 SI MM 1898-02-27 00:00:00 NR -17.06 42.42 165 162 _____P____P___ -1 -16.36 42.52 99 -17.75 42.33 7 8 205
1898 SI MM 03:00:00 NR -17.40 42.27 170 170 _____P____P___ -1 -16.64 42.35 99 -18.16 42.19 7 7 201
1898 SI MM 06:00:00 NR -17.75 42.15 reunion 181 183 _____O____O___ -1 -16.90 42.20 99 9.90 -18.60 42.10 7 7 196
1898 SI MM 09:00:00 NR -18.09 42.07 200 200 _____P____P___ -1 -17.12 42.09 99 -19.06 42.04 7 7 191
1898 SI MM 12:00:00 NR -18.43 42.01 211 211 _____P____P___ -1 -17.33 42.00 99 -19.54 42.02 7 7 186
1898 SI MM 15:00:00 NR -18.78 41.99 215 215 _____P____P___ -1 -17.53 41.93 99 -20.02 42.05 7 7 0
1898 SI MM 18:00:00 NR -19.12 41.99 224 224 _____P____O___ -1 -17.74 41.88 99 -20.50 42.10 7 5 0
1898 SI MM 21:00:00 NR -19.24 41.97 228 228 _____P________ -1 -17.95 41.84 99 7 1 194
1898 SI MM 1898-02-28 00:00:00 NR -19.25 41.94 242 234 _____P________ -1 -18.18 41.82 99 7 1 337
1898 SI MM 03:00:00 NR -19.11 41.90 234 228 _____P________ -1 -18.43 41.81 99 7 6 346
1898 SI MM 06:00:00 NR -18.70 41.80 reunion 234 234 _____O________ -1 -18.70 41.80 99 9.90 7 2 305
1898 SI MM 09:00:00 NR -19.00 41.73 251 251 _____P________ -1 -19.00 41.73 99 7 6 192
1898 SI MM 12:00:00 NR -19.31 41.66 262 262 _____P________ -1 -19.31 41.66 99 7 7 190
1898 SI MM 15:00:00 NR -19.65 41.60 274 252 _____P________ -1 -19.65 41.60 99 7 7 187
1898 SI MM 18:00:00 NR -20.01 41.57 252 226 _____P________ -1 -20.01 41.57 99 7 7 183
1898 SI MM 21:00:00 NR -20.38 41.56 226 212 _____P________ -1 -20.38 41.56 99 7 8 0
1898 SI MM 1898-03-01 00:00:00 NR -20.77 41.59 208 187 _____P________ -1 -20.77 41.59 99 7 8 173
1898 SI MM 03:00:00 NR -21.18 41.67 187 159 _____P________ -1 -21.18 41.67 99 7 9 166
1898 SI MM 06:00:00 NR -21.60 41.80 reunion 159 125 _____O________ -1 -21.60 41.80 99 9.90 7 10 160
1898 SI MM 09:00:00 NR -22.07 42.02 124 95 _____P________ -1 -22.07 42.02 99 7 11 154
1898 SI MM 12:00:00 NR -22.56 42.30 98 82 _____P________ -1 -22.56 42.30 99 7 11 150
1898 SI MM 15:00:00 NR -23.06 42.63 88 65 _____P________ -1 -23.06 42.63 99 7 12 147
1898 SI MM 18:00:00 NR -23.56 43.00 62 30 _____P________ -1 -23.56 43.00 99 7 12 145
1898 SI MM 21:00:00 NR -24.04 43.39 30 0 _____P________ -1 -24.04 43.39 99 7 18 140
1898 SI MM 1898-03-02 00:00:00 NR -24.97 44.29 0 0 _____P________ -1 -24.50 43.80 99 7 22 137
1898 SI MM 03:00:00 NR -25.63 45.00 11 11 _____P________ -1 -24.93 44.21 99 7 10 136
1898 SI MM 06:00:00 NR -25.68 45.06 reunion 15 11 _____O____O___ -1 -25.30 44.60 99 9.90 -27.20 46.90 7 0 296
1898 SI MM 09:00:00 NR -25.61 44.96 11 11 _____P________ -1 -25.61 44.96 99 7 3 131
1898 SI MM 12:00:00 NR -25.88 45.31 33 33 _____P________ -1 -25.88 45.31 99 7 8 128
1898 SI MM 15:00:00 NR -26.11 45.66 59 59 _____P________ -1 -26.11 45.66 99 7 7 125
1898 SI MM 18:00:00 NR -26.30 45.99 92 92 _____P________ -1 -26.30 45.99 99 7 7 121
1898 SI MM 21:00:00 NR -26.46 46.30 128 128 _____P________ -1 -26.46 46.30 99 7 6 118
1898 SI MM 1898-03-03 00:00:00 NR -26.59 46.60 156 156 _____P________ -1 -26.59 46.60 99 7 6 116
1898 SI MM 03:00:00 NR -26.71 46.86 167 167 _____P________ -1 -26.71 46.86 99 7 5 115
1898 SI MM 06:00:00 NR -26.80 47.10 reunion 181 181 _____O________ -1 -26.80 47.10 99 9.90 7 4 114
1898 SI MM 09:00:00 NR -26.88 47.30 196 196 _____P________ -1 -26.88 47.30 99 7 4 114
1898 SI MM 12:00:00 NR -26.95 47.47 202 202 _____P________ -1 -26.95 47.47 99 7 3 114
1898 SI MM 15:00:00 NR -27.01 47.62 216 216 _____P________ -1 -27.01 47.62 99 7 3 114
1898 SI MM 18:00:00 NR -27.05 47.74 230 230 _____P________ -1 -27.05 47.74 99 7 2 115
1898 SI MM 21:00:00 NR -27.10 47.85 234 234 _____P________ -1 -27.10 47.85 99 7 2 114
1898 SI MM 1898-03-04 00:00:00 NR -27.13 47.94 238 238 _____P________ -1 -27.13 47.94 99 7 2 115
1898 SI MM 03:00:00 NR -27.17 48.02 253 253 _____P________ -1 -27.17 48.02 99 7 2 115
1898 SI MM 06:00:00 NR -27.20 48.10 reunion 258 _____O________ -1 -27.20 48.10 99 9.90 7 2 114